sensor_id;sensor_type;location;lat;lon;timestamp;P1;durP1;ratioP1;P2;durP2;ratioP2
73120;SDS011;61307;49.628;-1.624;2023-08-08T00:02:02;4.93;;;2.10;;
73120;SDS011;61307;49.628;-1.624;2023-08-08T00:11:15;6.15;;;1.90;;
73120;SDS011;61307;49.628;-1.624;2023-08-08T00:13:50;6.00;;;2.25;;
73120;SDS011;61307;49.628;-1.624;2023-08-08T00:16:28;5.20;;;2.13;;
73120;SDS011;61307;49.628;-1.624;2023-08-08T00:19:11;5.03;;;1.70;;
73120;SDS011;61307;49.628;-1.624;2023-08-08T00:25:07;5.13;;;1.40;;
73120;SDS011;61307;49.628;-1.624;2023-08-08T00:37:29;5.90;;;1.60;;
73120;SDS011;61307;49.628;-1.624;2023-08-08T00:39:59;5.05;;;1.70;;
73120;SDS011;61307;49.628;-1.624;2023-08-08T00:42:28;5.38;;;1.60;;
73120;SDS011;61307;49.628;-1.624;2023-08-08T00:44:59;7.82;;;1.60;;
73120;SDS011;61307;49.628;-1.624;2023-08-08T00:48:10;7.55;;;1.80;;
73120;SDS011;61307;49.628;-1.624;2023-08-08T00:54:06;8.15;;;2.05;;
73120;SDS011;61307;49.628;-1.624;2023-08-08T00:56:35;5.03;;;1.85;;
73120;SDS011;61307;49.628;-1.624;2023-08-08T01:08:22;6.43;;;1.77;;
73120;SDS011;61307;49.628;-1.624;2023-08-08T01:10:56;4.50;;;1.70;;
73120;SDS011;61307;49.628;-1.624;2023-08-08T01:13:26;7.43;;;1.88;;
73120;SDS011;61307;49.628;-1.624;2023-08-08T01:15:57;6.28;;;2.00;;
73120;SDS011;61307;49.628;-1.624;2023-08-08T01:25:27;6.32;;;2.08;;
73120;SDS011;61307;49.628;-1.624;2023-08-08T01:27:55;4.78;;;1.75;;
73120;SDS011;61307;49.628;-1.624;2023-08-08T01:30:22;5.50;;;1.73;;
73120;SDS011;61307;49.628;-1.624;2023-08-08T01:32:50;8.52;;;2.15;;
73120;SDS011;61307;49.628;-1.624;2023-08-08T01:35:38;5.25;;;1.63;;
73120;SDS011;61307;49.628;-1.624;2023-08-08T01:38:11;6.47;;;2.00;;
73120;SDS011;61307;49.628;-1.624;2023-08-08T01:40:58;5.82;;;1.65;;
73120;SDS011;61307;49.628;-1.624;2023-08-08T01:43:40;4.18;;;1.90;;
73120;SDS011;61307;49.628;-1.624;2023-08-08T01:46:16;4.60;;;1.85;;
73120;SDS011;61307;49.628;-1.624;2023-08-08T01:48:54;5.15;;;1.85;;
73120;SDS011;61307;49.628;-1.624;2023-08-08T01:51:23;4.63;;;1.70;;
73120;SDS011;61307;49.628;-1.624;2023-08-08T01:54:16;8.90;;;2.50;;
73120;SDS011;61307;49.628;-1.624;2023-08-08T01:56:48;6.57;;;2.25;;
73120;SDS011;61307;49.628;-1.624;2023-08-08T01:59:15;6.82;;;1.70;;
73120;SDS011;61307;49.628;-1.624;2023-08-08T02:05:09;3.22;;;2.05;;
73120;SDS011;61307;49.628;-1.624;2023-08-08T02:10:43;7.22;;;2.30;;
73120;SDS011;61307;49.628;-1.624;2023-08-08T02:16:06;5.63;;;2.10;;
73120;SDS011;61307;49.628;-1.624;2023-08-08T02:18:42;4.57;;;1.75;;
73120;SDS011;61307;49.628;-1.624;2023-08-08T02:24:30;4.63;;;1.83;;
73120;SDS011;61307;49.628;-1.624;2023-08-08T02:27:11;3.45;;;1.90;;
73120;SDS011;61307;49.628;-1.624;2023-08-08T02:29:40;5.55;;;1.52;;
73120;SDS011;61307;49.628;-1.624;2023-08-08T02:36:10;6.38;;;2.05;;
73120;SDS011;61307;49.628;-1.624;2023-08-08T02:39:12;6.53;;;1.90;;
73120;SDS011;61307;49.628;-1.624;2023-08-08T02:41:40;6.78;;;1.80;;
73120;SDS011;61307;49.628;-1.624;2023-08-08T02:44:10;3.45;;;1.70;;
73120;SDS011;61307;49.628;-1.624;2023-08-08T02:46:39;8.10;;;2.10;;
73120;SDS011;61307;49.628;-1.624;2023-08-08T02:49:06;6.00;;;2.17;;
73120;SDS011;61307;49.628;-1.624;2023-08-08T02:51:35;6.50;;;1.90;;
73120;SDS011;61307;49.628;-1.624;2023-08-08T02:54:02;3.60;;;1.80;;
73120;SDS011;61307;49.628;-1.624;2023-08-08T02:56:43;4.55;;;1.77;;
73120;SDS011;61307;49.628;-1.624;2023-08-08T02:59:11;6.43;;;2.10;;
73120;SDS011;61307;49.628;-1.624;2023-08-08T03:01:39;5.85;;;2.03;;
73120;SDS011;61307;49.628;-1.624;2023-08-08T03:04:13;5.65;;;2.00;;
73120;SDS011;61307;49.628;-1.624;2023-08-08T03:07:46;7.22;;;2.25;;
73120;SDS011;61307;49.628;-1.624;2023-08-08T03:09:50;6.75;;;1.92;;
73120;SDS011;61307;49.628;-1.624;2023-08-08T03:12:17;6.97;;;1.98;;
73120;SDS011;61307;49.628;-1.624;2023-08-08T03:18:18;4.35;;;1.83;;
73120;SDS011;61307;49.628;-1.624;2023-08-08T03:20:58;6.60;;;1.70;;
73120;SDS011;61307;49.628;-1.624;2023-08-08T03:23:26;5.15;;;1.98;;
73120;SDS011;61307;49.628;-1.624;2023-08-08T03:25:53;5.05;;;1.83;;
73120;SDS011;61307;49.628;-1.624;2023-08-08T03:28:41;4.60;;;1.85;;
73120;SDS011;61307;49.628;-1.624;2023-08-08T03:34:45;3.55;;;1.60;;
73120;SDS011;61307;49.628;-1.624;2023-08-08T03:37:29;5.63;;;1.60;;
73120;SDS011;61307;49.628;-1.624;2023-08-08T03:39:56;5.10;;;1.90;;
73120;SDS011;61307;49.628;-1.624;2023-08-08T03:42:24;3.65;;;1.80;;
73120;SDS011;61307;49.628;-1.624;2023-08-08T03:44:51;4.70;;;1.80;;
73120;SDS011;61307;49.628;-1.624;2023-08-08T03:47:24;6.07;;;2.10;;
73120;SDS011;61307;49.628;-1.624;2023-08-08T03:50:08;8.13;;;2.05;;
73120;SDS011;61307;49.628;-1.624;2023-08-08T03:55:35;10.70;;;2.40;;
73120;SDS011;61307;49.628;-1.624;2023-08-08T04:01:40;6.63;;;1.73;;
73120;SDS011;61307;49.628;-1.624;2023-08-08T04:04:08;4.90;;;2.10;;
73120;SDS011;61307;49.628;-1.624;2023-08-08T04:06:37;4.53;;;1.67;;
73120;SDS011;61307;49.628;-1.624;2023-08-08T04:09:04;9.85;;;2.08;;
73120;SDS011;61307;49.628;-1.624;2023-08-08T04:11:45;4.32;;;1.85;;
73120;SDS011;61307;49.628;-1.624;2023-08-08T04:24:26;4.93;;;1.77;;
73120;SDS011;61307;49.628;-1.624;2023-08-08T04:27:06;3.47;;;1.75;;
73120;SDS011;61307;49.628;-1.624;2023-08-08T04:32:53;4.22;;;1.83;;
73120;SDS011;61307;49.628;-1.624;2023-08-08T04:38:56;6.93;;;1.77;;
73120;SDS011;61307;49.628;-1.624;2023-08-08T04:41:25;4.50;;;1.80;;
73120;SDS011;61307;49.628;-1.624;2023-08-08T04:43:52;3.13;;;1.67;;
73120;SDS011;61307;49.628;-1.624;2023-08-08T04:46:20;4.45;;;2.33;;
73120;SDS011;61307;49.628;-1.624;2023-08-08T04:48:47;5.55;;;1.70;;
73120;SDS011;61307;49.628;-1.624;2023-08-08T04:51:24;4.30;;;1.92;;
73120;SDS011;61307;49.628;-1.624;2023-08-08T04:54:07;5.30;;;1.60;;
73120;SDS011;61307;49.628;-1.624;2023-08-08T04:56:38;3.95;;;1.75;;
73120;SDS011;61307;49.628;-1.624;2023-08-08T05:03:35;6.03;;;2.03;;
73120;SDS011;61307;49.628;-1.624;2023-08-08T05:05:31;12.70;;;2.25;;
73120;SDS011;61307;49.628;-1.624;2023-08-08T05:07:58;3.35;;;1.70;;
73120;SDS011;61307;49.628;-1.624;2023-08-08T05:10:32;4.55;;;1.88;;
73120;SDS011;61307;49.628;-1.624;2023-08-08T05:16:06;4.20;;;1.70;;
73120;SDS011;61307;49.628;-1.624;2023-08-08T05:18:35;5.47;;;1.90;;
73120;SDS011;61307;49.628;-1.624;2023-08-08T05:24:43;5.20;;;1.90;;
73120;SDS011;61307;49.628;-1.624;2023-08-08T05:27:11;4.07;;;1.88;;
73120;SDS011;61307;49.628;-1.624;2023-08-08T05:29:39;6.82;;;1.80;;
73120;SDS011;61307;49.628;-1.624;2023-08-08T05:34:58;4.78;;;2.20;;
73120;SDS011;61307;49.628;-1.624;2023-08-08T05:37:29;4.07;;;1.83;;
73120;SDS011;61307;49.628;-1.624;2023-08-08T05:39:57;3.50;;;2.10;;
73120;SDS011;61307;49.628;-1.624;2023-08-08T05:42:30;4.10;;;1.77;;
73120;SDS011;61307;49.628;-1.624;2023-08-08T05:45:31;3.83;;;1.60;;
73120;SDS011;61307;49.628;-1.624;2023-08-08T05:48:16;5.78;;;2.15;;
73120;SDS011;61307;49.628;-1.624;2023-08-08T05:50:48;6.30;;;1.90;;
73120;SDS011;61307;49.628;-1.624;2023-08-08T05:53:23;4.47;;;1.65;;
73120;SDS011;61307;49.628;-1.624;2023-08-08T05:56:12;6.18;;;1.90;;
73120;SDS011;61307;49.628;-1.624;2023-08-08T06:05:15;4.22;;;1.95;;
73120;SDS011;61307;49.628;-1.624;2023-08-08T06:07:44;6.28;;;1.90;;
73120;SDS011;61307;49.628;-1.624;2023-08-08T06:10:13;9.05;;;1.80;;
73120;SDS011;61307;49.628;-1.624;2023-08-08T06:12:41;7.28;;;2.30;;
73120;SDS011;61307;49.628;-1.624;2023-08-08T06:18:14;4.60;;;1.80;;
73120;SDS011;61307;49.628;-1.624;2023-08-08T06:20:42;3.88;;;1.90;;
73120;SDS011;61307;49.628;-1.624;2023-08-08T06:23:10;3.38;;;2.00;;
73120;SDS011;61307;49.628;-1.624;2023-08-08T06:26:22;5.03;;;1.98;;
73120;SDS011;61307;49.628;-1.624;2023-08-08T06:32:23;4.80;;;1.88;;
73120;SDS011;61307;49.628;-1.624;2023-08-08T06:37:59;5.13;;;2.13;;
73120;SDS011;61307;49.628;-1.624;2023-08-08T06:40:26;4.90;;;2.40;;
73120;SDS011;61307;49.628;-1.624;2023-08-08T06:42:56;3.50;;;1.67;;
73120;SDS011;61307;49.628;-1.624;2023-08-08T06:45:23;3.97;;;1.55;;
73120;SDS011;61307;49.628;-1.624;2023-08-08T06:47:51;5.28;;;1.75;;
73120;SDS011;61307;49.628;-1.624;2023-08-08T06:50:36;7.75;;;1.70;;
73120;SDS011;61307;49.628;-1.624;2023-08-08T06:53:17;4.25;;;1.80;;
73120;SDS011;61307;49.628;-1.624;2023-08-08T06:55:55;6.93;;;1.92;;
73120;SDS011;61307;49.628;-1.624;2023-08-08T06:58:23;6.35;;;1.80;;
73120;SDS011;61307;49.628;-1.624;2023-08-08T07:00:50;3.72;;;1.65;;
73120;SDS011;61307;49.628;-1.624;2023-08-08T07:03:18;7.43;;;2.17;;
73120;SDS011;61307;49.628;-1.624;2023-08-08T07:05:47;3.75;;;1.85;;
73120;SDS011;61307;49.628;-1.624;2023-08-08T07:08:17;6.05;;;1.60;;
73120;SDS011;61307;49.628;-1.624;2023-08-08T07:10:46;4.72;;;1.85;;
73120;SDS011;61307;49.628;-1.624;2023-08-08T07:13:13;5.72;;;1.70;;
73120;SDS011;61307;49.628;-1.624;2023-08-08T07:15:41;4.43;;;1.90;;
73120;SDS011;61307;49.628;-1.624;2023-08-08T07:18:08;11.30;;;2.10;;
73120;SDS011;61307;49.628;-1.624;2023-08-08T07:20:35;6.25;;;2.15;;
73120;SDS011;61307;49.628;-1.624;2023-08-08T07:23:06;3.45;;;1.88;;
73120;SDS011;61307;49.628;-1.624;2023-08-08T07:36:02;3.95;;;1.63;;
73120;SDS011;61307;49.628;-1.624;2023-08-08T07:38:32;5.55;;;1.63;;
73120;SDS011;61307;49.628;-1.624;2023-08-08T07:41:02;3.40;;;1.63;;
73120;SDS011;61307;49.628;-1.624;2023-08-08T07:49:59;4.05;;;1.63;;
73120;SDS011;61307;49.628;-1.624;2023-08-08T07:52:27;5.57;;;2.05;;
73120;SDS011;61307;49.628;-1.624;2023-08-08T07:54:57;6.63;;;1.95;;
73120;SDS011;61307;49.628;-1.624;2023-08-08T07:57:26;3.90;;;1.60;;
73120;SDS011;61307;49.628;-1.624;2023-08-08T08:12:59;2.45;;;1.73;;
73120;SDS011;61307;49.628;-1.624;2023-08-08T08:15:27;7.68;;;2.20;;
73120;SDS011;61307;49.628;-1.624;2023-08-08T08:17:54;4.20;;;1.58;;
73120;SDS011;61307;49.628;-1.624;2023-08-08T08:20:22;4.53;;;1.75;;
73120;SDS011;61307;49.628;-1.624;2023-08-08T08:23:26;4.88;;;1.90;;
73120;SDS011;61307;49.628;-1.624;2023-08-08T08:25:54;6.00;;;2.20;;
73120;SDS011;61307;49.628;-1.624;2023-08-08T08:31:21;5.25;;;1.80;;
73120;SDS011;61307;49.628;-1.624;2023-08-08T08:34:24;5.70;;;1.90;;
73120;SDS011;61307;49.628;-1.624;2023-08-08T08:36:51;6.22;;;1.70;;
73120;SDS011;61307;49.628;-1.624;2023-08-08T08:39:32;6.28;;;1.98;;
73120;SDS011;61307;49.628;-1.624;2023-08-08T08:42:00;5.25;;;2.05;;
73120;SDS011;61307;49.628;-1.624;2023-08-08T08:44:46;2.65;;;1.70;;
73120;SDS011;61307;49.628;-1.624;2023-08-08T08:47:14;4.88;;;1.60;;
73120;SDS011;61307;49.628;-1.624;2023-08-08T08:50:00;4.53;;;1.90;;
73120;SDS011;61307;49.628;-1.624;2023-08-08T08:52:29;4.85;;;1.80;;
73120;SDS011;61307;49.628;-1.624;2023-08-08T08:55:06;3.67;;;2.00;;
73120;SDS011;61307;49.628;-1.624;2023-08-08T08:57:37;6.03;;;1.90;;
73120;SDS011;61307;49.628;-1.624;2023-08-08T09:06:59;26.08;;;2.63;;
73120;SDS011;61307;49.628;-1.624;2023-08-08T09:09:44;10.30;;;2.20;;
73120;SDS011;61307;49.628;-1.624;2023-08-08T09:12:25;10.15;;;1.80;;
73120;SDS011;61307;49.628;-1.624;2023-08-08T09:15:06;8.50;;;2.08;;
73120;SDS011;61307;49.628;-1.624;2023-08-08T09:17:35;7.28;;;2.08;;
73120;SDS011;61307;49.628;-1.624;2023-08-08T09:20:25;5.32;;;2.00;;
73120;SDS011;61307;49.628;-1.624;2023-08-08T09:23:22;3.88;;;1.90;;
73120;SDS011;61307;49.628;-1.624;2023-08-08T09:28:27;13.35;;;2.58;;
73120;SDS011;61307;49.628;-1.624;2023-08-08T09:31:05;6.20;;;1.67;;
73120;SDS011;61307;49.628;-1.624;2023-08-08T09:33:38;6.47;;;2.08;;
73120;SDS011;61307;49.628;-1.624;2023-08-08T09:36:05;4.80;;;1.73;;
73120;SDS011;61307;49.628;-1.624;2023-08-08T09:38:35;5.53;;;2.17;;
73120;SDS011;61307;49.628;-1.624;2023-08-08T09:41:03;5.00;;;1.88;;
73120;SDS011;61307;49.628;-1.624;2023-08-08T09:50:47;13.00;;;2.33;;
73120;SDS011;61307;49.628;-1.624;2023-08-08T09:53:14;5.55;;;1.92;;
73120;SDS011;61307;49.628;-1.624;2023-08-08T09:55:49;4.22;;;1.58;;
73120;SDS011;61307;49.628;-1.624;2023-08-08T09:58:20;5.55;;;1.70;;
73120;SDS011;61307;49.628;-1.624;2023-08-08T10:04:23;5.65;;;1.77;;
73120;SDS011;61307;49.628;-1.624;2023-08-08T10:07:54;8.00;;;1.95;;
73120;SDS011;61307;49.628;-1.624;2023-08-08T10:16:47;9.98;;;1.85;;
73120;SDS011;61307;49.628;-1.624;2023-08-08T10:19:25;5.53;;;1.70;;
73120;SDS011;61307;49.628;-1.624;2023-08-08T10:21:56;7.35;;;2.10;;
73120;SDS011;61307;49.628;-1.624;2023-08-08T10:24:33;6.63;;;2.00;;
73120;SDS011;61307;49.628;-1.624;2023-08-08T10:27:02;2.35;;;1.40;;
73120;SDS011;61307;49.628;-1.624;2023-08-08T10:32:42;3.85;;;1.90;;
73120;SDS011;61307;49.628;-1.624;2023-08-08T10:35:21;3.83;;;1.60;;
73120;SDS011;61307;49.628;-1.624;2023-08-08T10:38:07;4.97;;;1.70;;
73120;SDS011;61307;49.628;-1.624;2023-08-08T10:40:53;3.78;;;1.55;;
73120;SDS011;61307;49.628;-1.624;2023-08-08T10:43:28;4.68;;;1.75;;
73120;SDS011;61307;49.628;-1.624;2023-08-08T10:45:58;3.08;;;1.40;;
73120;SDS011;61307;49.628;-1.624;2023-08-08T10:48:48;14.80;;;2.05;;
73120;SDS011;61307;49.628;-1.624;2023-08-08T10:51:21;6.05;;;1.80;;
73120;SDS011;61307;49.628;-1.624;2023-08-08T10:57:15;3.97;;;1.80;;
73120;SDS011;61307;49.628;-1.624;2023-08-08T10:59:44;7.95;;;1.63;;
73120;SDS011;61307;49.628;-1.624;2023-08-08T11:02:26;3.58;;;1.67;;
73120;SDS011;61307;49.628;-1.624;2023-08-08T11:04:56;2.15;;;1.52;;
73120;SDS011;61307;49.628;-1.624;2023-08-08T11:08:16;2.83;;;1.40;;
73120;SDS011;61307;49.628;-1.624;2023-08-08T11:10:39;2.63;;;1.60;;
73120;SDS011;61307;49.628;-1.624;2023-08-08T11:32:32;6.90;;;1.65;;
73120;SDS011;61307;49.628;-1.624;2023-08-08T11:35:21;8.30;;;1.70;;
73120;SDS011;61307;49.628;-1.624;2023-08-08T11:37:50;2.22;;;1.40;;
73120;SDS011;61307;49.628;-1.624;2023-08-08T11:40:20;5.47;;;1.73;;
73120;SDS011;61307;49.628;-1.624;2023-08-08T11:42:59;3.15;;;1.92;;
73120;SDS011;61307;49.628;-1.624;2023-08-08T11:49:06;2.67;;;1.40;;
73120;SDS011;61307;49.628;-1.624;2023-08-08T11:58:19;10.68;;;2.33;;
73120;SDS011;61307;49.628;-1.624;2023-08-08T12:08:00;6.85;;;2.17;;
73120;SDS011;61307;49.628;-1.624;2023-08-08T12:10:37;4.45;;;1.83;;
73120;SDS011;61307;49.628;-1.624;2023-08-08T12:13:05;4.85;;;1.60;;
73120;SDS011;61307;49.628;-1.624;2023-08-08T12:16:18;6.82;;;2.00;;
73120;SDS011;61307;49.628;-1.624;2023-08-08T12:19:03;6.68;;;2.05;;
73120;SDS011;61307;49.628;-1.624;2023-08-08T12:21:46;17.85;;;2.28;;
73120;SDS011;61307;49.628;-1.624;2023-08-08T12:24:29;3.63;;;1.70;;
73120;SDS011;61307;49.628;-1.624;2023-08-08T12:33:34;13.55;;;1.77;;
73120;SDS011;61307;49.628;-1.624;2023-08-08T12:46:34;8.68;;;2.20;;
73120;SDS011;61307;49.628;-1.624;2023-08-08T12:49:22;6.85;;;1.70;;
73120;SDS011;61307;49.628;-1.624;2023-08-08T12:51:57;4.78;;;1.70;;
73120;SDS011;61307;49.628;-1.624;2023-08-08T12:58:01;6.70;;;2.00;;
73120;SDS011;61307;49.628;-1.624;2023-08-08T13:04:11;5.60;;;1.73;;
73120;SDS011;61307;49.628;-1.624;2023-08-08T13:06:38;6.10;;;2.00;;
73120;SDS011;61307;49.628;-1.624;2023-08-08T13:09:06;6.03;;;2.08;;
73120;SDS011;61307;49.628;-1.624;2023-08-08T13:11:33;4.20;;;1.83;;
73120;SDS011;61307;49.628;-1.624;2023-08-08T13:14:01;7.70;;;1.98;;
73120;SDS011;61307;49.628;-1.624;2023-08-08T13:16:37;8.95;;;2.03;;
73120;SDS011;61307;49.628;-1.624;2023-08-08T13:19:08;4.53;;;1.95;;
73120;SDS011;61307;49.628;-1.624;2023-08-08T13:21:38;8.95;;;1.90;;
73120;SDS011;61307;49.628;-1.624;2023-08-08T13:30:57;5.00;;;2.17;;
73120;SDS011;61307;49.628;-1.624;2023-08-08T13:33:26;6.32;;;2.13;;
73120;SDS011;61307;49.628;-1.624;2023-08-08T13:38:43;4.90;;;2.05;;
73120;SDS011;61307;49.628;-1.624;2023-08-08T13:41:34;5.15;;;2.40;;
73120;SDS011;61307;49.628;-1.624;2023-08-08T13:44:02;7.18;;;2.15;;
73120;SDS011;61307;49.628;-1.624;2023-08-08T13:49:30;9.00;;;2.50;;
73120;SDS011;61307;49.628;-1.624;2023-08-08T14:02:08;4.93;;;1.92;;
73120;SDS011;61307;49.628;-1.624;2023-08-08T14:04:36;7.10;;;1.95;;
73120;SDS011;61307;49.628;-1.624;2023-08-08T14:07:33;8.25;;;2.10;;
73120;SDS011;61307;49.628;-1.624;2023-08-08T14:10:01;5.97;;;2.50;;
73120;SDS011;61307;49.628;-1.624;2023-08-08T14:12:32;12.48;;;2.20;;
73120;SDS011;61307;49.628;-1.624;2023-08-08T14:15:01;8.10;;;2.50;;
73120;SDS011;61307;49.628;-1.624;2023-08-08T14:17:31;14.32;;;2.22;;
73120;SDS011;61307;49.628;-1.624;2023-08-08T14:20:11;8.45;;;2.00;;
73120;SDS011;61307;49.628;-1.624;2023-08-08T14:23:00;10.88;;;2.00;;
73120;SDS011;61307;49.628;-1.624;2023-08-08T14:25:44;6.10;;;2.22;;
73120;SDS011;61307;49.628;-1.624;2023-08-08T14:28:49;6.57;;;2.10;;
73120;SDS011;61307;49.628;-1.624;2023-08-08T14:31:33;5.88;;;2.25;;
73120;SDS011;61307;49.628;-1.624;2023-08-08T14:34:02;9.20;;;2.45;;
73120;SDS011;61307;49.628;-1.624;2023-08-08T14:36:29;5.38;;;1.90;;
73120;SDS011;61307;49.628;-1.624;2023-08-08T14:38:57;5.03;;;1.98;;
73120;SDS011;61307;49.628;-1.624;2023-08-08T14:41:49;4.85;;;2.17;;
73120;SDS011;61307;49.628;-1.624;2023-08-08T14:44:20;7.72;;;2.50;;
73120;SDS011;61307;49.628;-1.624;2023-08-08T14:47:09;6.65;;;2.80;;
73120;SDS011;61307;49.628;-1.624;2023-08-08T14:49:36;9.82;;;2.53;;
73120;SDS011;61307;49.628;-1.624;2023-08-08T14:55:02;4.35;;;2.60;;
73120;SDS011;61307;49.628;-1.624;2023-08-08T15:00:47;8.60;;;2.22;;
73120;SDS011;61307;49.628;-1.624;2023-08-08T15:03:16;5.38;;;2.03;;
73120;SDS011;61307;49.628;-1.624;2023-08-08T15:08:28;5.80;;;2.72;;
73120;SDS011;61307;49.628;-1.624;2023-08-08T15:10:55;9.15;;;2.10;;
73120;SDS011;61307;49.628;-1.624;2023-08-08T15:16:33;4.45;;;1.90;;
73120;SDS011;61307;49.628;-1.624;2023-08-08T15:21:56;8.05;;;2.53;;
73120;SDS011;61307;49.628;-1.624;2023-08-08T15:24:25;5.00;;;2.30;;
73120;SDS011;61307;49.628;-1.624;2023-08-08T15:29:56;5.85;;;2.15;;
73120;SDS011;61307;49.628;-1.624;2023-08-08T15:32:37;4.63;;;2.15;;
73120;SDS011;61307;49.628;-1.624;2023-08-08T15:35:26;4.43;;;2.30;;
73120;SDS011;61307;49.628;-1.624;2023-08-08T15:37:55;5.65;;;2.40;;
73120;SDS011;61307;49.628;-1.624;2023-08-08T15:40:24;8.23;;;2.05;;
73120;SDS011;61307;49.628;-1.624;2023-08-08T15:49:28;7.45;;;2.20;;
73120;SDS011;61307;49.628;-1.624;2023-08-08T15:58:48;5.30;;;2.08;;
73120;SDS011;61307;49.628;-1.624;2023-08-08T16:01:21;12.57;;;3.10;;
73120;SDS011;61307;49.628;-1.624;2023-08-08T16:03:48;8.05;;;2.20;;
73120;SDS011;61307;49.628;-1.624;2023-08-08T16:06:19;5.65;;;2.22;;
73120;SDS011;61307;49.628;-1.624;2023-08-08T16:08:57;5.38;;;2.35;;
73120;SDS011;61307;49.628;-1.624;2023-08-08T16:11:25;5.68;;;2.20;;
73120;SDS011;61307;49.628;-1.624;2023-08-08T16:13:52;6.63;;;2.17;;
73120;SDS011;61307;49.628;-1.624;2023-08-08T16:16:20;7.50;;;2.35;;
73120;SDS011;61307;49.628;-1.624;2023-08-08T16:18:56;4.68;;;2.22;;
73120;SDS011;61307;49.628;-1.624;2023-08-08T16:21:29;6.03;;;2.28;;
73120;SDS011;61307;49.628;-1.624;2023-08-08T16:24:31;6.05;;;1.98;;
73120;SDS011;61307;49.628;-1.624;2023-08-08T16:26:59;5.50;;;2.40;;
73120;SDS011;61307;49.628;-1.624;2023-08-08T16:29:27;5.90;;;2.25;;
73120;SDS011;61307;49.628;-1.624;2023-08-08T16:35:22;7.70;;;2.35;;
73120;SDS011;61307;49.628;-1.624;2023-08-08T16:37:50;9.05;;;2.45;;
73120;SDS011;61307;49.628;-1.624;2023-08-08T16:50:08;6.38;;;2.65;;
73120;SDS011;61307;49.628;-1.624;2023-08-08T16:52:50;5.15;;;2.53;;
73120;SDS011;61307;49.628;-1.624;2023-08-08T16:55:18;7.57;;;2.45;;
73120;SDS011;61307;49.628;-1.624;2023-08-08T16:58:12;5.03;;;2.30;;
73120;SDS011;61307;49.628;-1.624;2023-08-08T17:03:44;6.57;;;2.60;;
73120;SDS011;61307;49.628;-1.624;2023-08-08T17:06:38;7.03;;;2.20;;
73120;SDS011;61307;49.628;-1.624;2023-08-08T17:09:05;4.43;;;2.28;;
73120;SDS011;61307;49.628;-1.624;2023-08-08T17:11:33;6.05;;;2.10;;
73120;SDS011;61307;49.628;-1.624;2023-08-08T17:16:41;5.00;;;2.17;;
73120;SDS011;61307;49.628;-1.624;2023-08-08T17:19:14;6.63;;;1.98;;
73120;SDS011;61307;49.628;-1.624;2023-08-08T17:24:53;5.93;;;2.10;;
73120;SDS011;61307;49.628;-1.624;2023-08-08T17:27:20;3.95;;;2.20;;
73120;SDS011;61307;49.628;-1.624;2023-08-08T17:29:50;7.47;;;2.20;;
73120;SDS011;61307;49.628;-1.624;2023-08-08T17:39:20;4.70;;;2.17;;
73120;SDS011;61307;49.628;-1.624;2023-08-08T17:45:26;3.08;;;1.92;;
73120;SDS011;61307;49.628;-1.624;2023-08-08T17:52:14;5.18;;;1.67;;
73120;SDS011;61307;49.628;-1.624;2023-08-08T18:18:39;6.95;;;1.92;;
73120;SDS011;61307;49.628;-1.624;2023-08-08T18:21:07;3.42;;;1.60;;
73120;SDS011;61307;49.628;-1.624;2023-08-08T18:30:48;4.47;;;1.45;;
73120;SDS011;61307;49.628;-1.624;2023-08-08T18:40:07;2.88;;;1.50;;
73120;SDS011;61307;49.628;-1.624;2023-08-08T18:42:50;4.47;;;1.50;;
73120;SDS011;61307;49.628;-1.624;2023-08-08T18:48:53;5.95;;;1.83;;
73120;SDS011;61307;49.628;-1.624;2023-08-08T18:51:30;3.08;;;1.65;;
73120;SDS011;61307;49.628;-1.624;2023-08-08T18:57:34;4.25;;;2.08;;
73120;SDS011;61307;49.628;-1.624;2023-08-08T19:00:13;4.88;;;1.85;;
73120;SDS011;61307;49.628;-1.624;2023-08-08T19:10:01;6.50;;;2.50;;
73120;SDS011;61307;49.628;-1.624;2023-08-08T19:12:54;4.95;;;1.80;;
73120;SDS011;61307;49.628;-1.624;2023-08-08T19:21:59;5.78;;;2.38;;
73120;SDS011;61307;49.628;-1.624;2023-08-08T19:24:26;7.80;;;2.28;;
73120;SDS011;61307;49.628;-1.624;2023-08-08T19:27:14;8.88;;;2.22;;
73120;SDS011;61307;49.628;-1.624;2023-08-08T19:36:21;4.80;;;1.58;;
73120;SDS011;61307;49.628;-1.624;2023-08-08T19:39:15;5.13;;;1.80;;
73120;SDS011;61307;49.628;-1.624;2023-08-08T19:49:02;3.15;;;1.70;;
73120;SDS011;61307;49.628;-1.624;2023-08-08T20:01:44;2.42;;;1.40;;
73120;SDS011;61307;49.628;-1.624;2023-08-08T20:04:12;7.32;;;1.70;;
73120;SDS011;61307;49.628;-1.624;2023-08-08T20:06:39;3.95;;;1.48;;
73120;SDS011;61307;49.628;-1.624;2023-08-08T20:11:48;4.30;;;1.40;;
73120;SDS011;61307;49.628;-1.624;2023-08-08T20:14:19;3.08;;;1.20;;
73120;SDS011;61307;49.628;-1.624;2023-08-08T20:20:00;4.05;;;1.40;;
73120;SDS011;61307;49.628;-1.624;2023-08-08T20:23:03;3.60;;;1.35;;
73120;SDS011;61307;49.628;-1.624;2023-08-08T20:25:30;3.58;;;1.30;;
73120;SDS011;61307;49.628;-1.624;2023-08-08T20:41:11;2.58;;;1.63;;
73120;SDS011;61307;49.628;-1.624;2023-08-08T20:47:16;1.67;;;1.10;;
73120;SDS011;61307;49.628;-1.624;2023-08-08T20:50:00;3.13;;;1.25;;
73120;SDS011;61307;49.628;-1.624;2023-08-08T20:55:45;1.63;;;1.10;;
73120;SDS011;61307;49.628;-1.624;2023-08-08T21:01:20;2.00;;;1.02;;
73120;SDS011;61307;49.628;-1.624;2023-08-08T21:03:50;1.67;;;1.00;;
73120;SDS011;61307;49.628;-1.624;2023-08-08T21:09:43;1.55;;;1.00;;
73120;SDS011;61307;49.628;-1.624;2023-08-08T21:12:12;1.88;;;0.90;;
73120;SDS011;61307;49.628;-1.624;2023-08-08T21:18:17;2.22;;;1.10;;
73120;SDS011;61307;49.628;-1.624;2023-08-08T21:27:05;5.13;;;1.10;;
73120;SDS011;61307;49.628;-1.624;2023-08-08T21:33:23;2.00;;;0.90;;
73120;SDS011;61307;49.628;-1.624;2023-08-08T21:35:57;2.38;;;1.05;;
73120;SDS011;61307;49.628;-1.624;2023-08-08T21:38:38;1.05;;;0.88;;
73120;SDS011;61307;49.628;-1.624;2023-08-08T21:41:06;2.47;;;0.80;;
73120;SDS011;61307;49.628;-1.624;2023-08-08T21:43:33;3.72;;;1.30;;
73120;SDS011;61307;49.628;-1.624;2023-08-08T21:49:55;1.35;;;0.90;;
73120;SDS011;61307;49.628;-1.624;2023-08-08T21:54:53;2.53;;;1.13;;
73120;SDS011;61307;49.628;-1.624;2023-08-08T21:56:19;1.17;;;1.08;;
73120;SDS011;61307;49.628;-1.624;2023-08-08T21:59:06;1.42;;;0.90;;
73120;SDS011;61307;49.628;-1.624;2023-08-08T22:29:02;1.65;;;1.20;;
73120;SDS011;61307;49.628;-1.624;2023-08-08T22:46:00;4.07;;;1.75;;
73120;SDS011;61307;49.628;-1.624;2023-08-08T22:49:35;3.20;;;1.85;;
73120;SDS011;61307;49.628;-1.624;2023-08-08T22:52:02;3.00;;;1.98;;
73120;SDS011;61307;49.628;-1.624;2023-08-08T22:54:36;3.17;;;1.70;;
73120;SDS011;61307;49.628;-1.624;2023-08-08T22:57:20;2.28;;;1.25;;
73120;SDS011;61307;49.628;-1.624;2023-08-08T23:02:45;3.65;;;1.70;;
73120;SDS011;61307;49.628;-1.624;2023-08-08T23:05:28;1.92;;;1.40;;
73120;SDS011;61307;49.628;-1.624;2023-08-08T23:07:58;3.58;;;2.03;;
73120;SDS011;61307;49.628;-1.624;2023-08-08T23:17:06;2.72;;;1.95;;
73120;SDS011;61307;49.628;-1.624;2023-08-08T23:26:20;10.13;;;2.47;;
73120;SDS011;61307;49.628;-1.624;2023-08-08T23:29:05;2.33;;;1.75;;
73120;SDS011;61307;49.628;-1.624;2023-08-08T23:32:08;2.97;;;1.95;;
73120;SDS011;61307;49.628;-1.624;2023-08-08T23:34:36;5.50;;;1.95;;
73120;SDS011;61307;49.628;-1.624;2023-08-08T23:37:08;3.53;;;1.80;;
73120;SDS011;61307;49.628;-1.624;2023-08-08T23:39:35;4.88;;;2.20;;
73120;SDS011;61307;49.628;-1.624;2023-08-08T23:42:02;3.30;;;1.92;;
73120;SDS011;61307;49.628;-1.624;2023-08-08T23:44:44;3.38;;;1.98;;
73120;SDS011;61307;49.628;-1.624;2023-08-08T23:47:37;3.80;;;1.80;;
73120;SDS011;61307;49.628;-1.624;2023-08-08T23:50:31;6.18;;;2.05;;
73120;SDS011;61307;49.628;-1.624;2023-08-08T23:53:55;3.85;;;1.88;;
73120;SDS011;61307;49.628;-1.624;2023-08-08T23:56:32;5.40;;;2.10;;
73120;SDS011;61307;49.628;-1.624;2023-08-08T23:59:00;3.85;;;1.73;;
